sensor_id;sensor_type;location;lat;lon;timestamp;temperature;humidity
29431;DHT22;16404;49.902;10.074;2023-05-20T00:01:38;17.70;51.30
29431;DHT22;16404;49.902;10.074;2023-05-20T00:04:22;17.70;51.10
29431;DHT22;16404;49.902;10.074;2023-05-20T00:07:07;17.70;51.20
29431;DHT22;16404;49.902;10.074;2023-05-20T00:09:52;17.70;51.10
29431;DHT22;16404;49.902;10.074;2023-05-20T00:12:39;17.60;51.20
29431;DHT22;16404;49.902;10.074;2023-05-20T00:15:24;17.60;51.50
29431;DHT22;16404;49.902;10.074;2023-05-20T00:18:09;17.60;51.80
29431;DHT22;16404;49.902;10.074;2023-05-20T00:20:53;17.60;51.70
29431;DHT22;16404;49.902;10.074;2023-05-20T00:23:38;17.50;52.00
29431;DHT22;16404;49.902;10.074;2023-05-20T00:26:22;17.50;52.50
29431;DHT22;16404;49.902;10.074;2023-05-20T00:29:11;17.50;52.70
29431;DHT22;16404;49.902;10.074;2023-05-20T00:31:56;17.50;52.90
29431;DHT22;16404;49.902;10.074;2023-05-20T00:34:42;17.50;52.90
29431;DHT22;16404;49.902;10.074;2023-05-20T00:37:27;17.50;52.80
29431;DHT22;16404;49.902;10.074;2023-05-20T00:40:12;17.50;53.00
29431;DHT22;16404;49.902;10.074;2023-05-20T00:42:57;17.50;52.90
29431;DHT22;16404;49.902;10.074;2023-05-20T00:45:41;17.40;52.70
29431;DHT22;16404;49.902;10.074;2023-05-20T00:48:29;17.40;52.90
29431;DHT22;16404;49.902;10.074;2023-05-20T00:51:16;17.40;53.30
29431;DHT22;16404;49.902;10.074;2023-05-20T00:54:01;17.40;53.20
29431;DHT22;16404;49.902;10.074;2023-05-20T00:56:46;17.40;53.20
29431;DHT22;16404;49.902;10.074;2023-05-20T00:59:31;17.50;52.80
29431;DHT22;16404;49.902;10.074;2023-05-20T01:02:16;17.50;52.40
29431;DHT22;16404;49.902;10.074;2023-05-20T01:05:01;17.50;52.20
29431;DHT22;16404;49.902;10.074;2023-05-20T01:07:45;17.50;52.60
29431;DHT22;16404;49.902;10.074;2023-05-20T01:10:31;17.50;52.70
29431;DHT22;16404;49.902;10.074;2023-05-20T01:13:20;17.50;52.80
29431;DHT22;16404;49.902;10.074;2023-05-20T01:16:07;17.40;52.70
29431;DHT22;16404;49.902;10.074;2023-05-20T01:18:55;17.40;53.30
29431;DHT22;16404;49.902;10.074;2023-05-20T01:21:40;17.30;53.50
29431;DHT22;16404;49.902;10.074;2023-05-20T01:24:27;17.40;54.00
29431;DHT22;16404;49.902;10.074;2023-05-20T01:27:12;17.40;54.20
29431;DHT22;16404;49.902;10.074;2023-05-20T01:29:59;17.40;53.40
29431;DHT22;16404;49.902;10.074;2023-05-20T01:33:04;17.50;52.80
29431;DHT22;16404;49.902;10.074;2023-05-20T01:35:51;17.50;53.30
29431;DHT22;16404;49.902;10.074;2023-05-20T01:38:37;17.50;52.60
29431;DHT22;16404;49.902;10.074;2023-05-20T01:41:23;17.50;52.90
29431;DHT22;16404;49.902;10.074;2023-05-20T01:44:08;17.60;53.40
29431;DHT22;16404;49.902;10.074;2023-05-20T01:46:53;17.50;53.90
29431;DHT22;16404;49.902;10.074;2023-05-20T01:49:37;17.50;54.10
29431;DHT22;16404;49.902;10.074;2023-05-20T01:52:22;17.50;53.60
29431;DHT22;16404;49.902;10.074;2023-05-20T01:55:07;17.50;53.50
29431;DHT22;16404;49.902;10.074;2023-05-20T01:57:52;17.60;53.70
29431;DHT22;16404;49.902;10.074;2023-05-20T02:00:37;17.60;53.80
29431;DHT22;16404;49.902;10.074;2023-05-20T02:03:22;17.60;53.40
29431;DHT22;16404;49.902;10.074;2023-05-20T02:06:06;17.60;53.30
29431;DHT22;16404;49.902;10.074;2023-05-20T02:08:51;17.60;53.60
29431;DHT22;16404;49.902;10.074;2023-05-20T02:11:36;17.60;53.70
29431;DHT22;16404;49.902;10.074;2023-05-20T02:14:20;17.70;53.70
29431;DHT22;16404;49.902;10.074;2023-05-20T02:17:05;17.70;53.40
29431;DHT22;16404;49.902;10.074;2023-05-20T02:19:50;17.60;53.90
29431;DHT22;16404;49.902;10.074;2023-05-20T02:22:35;17.70;54.30
29431;DHT22;16404;49.902;10.074;2023-05-20T02:25:21;17.70;53.90
29431;DHT22;16404;49.902;10.074;2023-05-20T02:28:05;17.70;54.00
29431;DHT22;16404;49.902;10.074;2023-05-20T02:30:53;17.70;54.10
29431;DHT22;16404;49.902;10.074;2023-05-20T02:33:38;17.70;53.90
29431;DHT22;16404;49.902;10.074;2023-05-20T02:36:23;17.80;53.60
29431;DHT22;16404;49.902;10.074;2023-05-20T02:39:08;17.70;53.40
29431;DHT22;16404;49.902;10.074;2023-05-20T02:41:53;17.70;53.50
29431;DHT22;16404;49.902;10.074;2023-05-20T02:44:38;17.70;53.90
29431;DHT22;16404;49.902;10.074;2023-05-20T02:47:24;17.70;53.90
29431;DHT22;16404;49.902;10.074;2023-05-20T02:50:09;17.70;53.80
29431;DHT22;16404;49.902;10.074;2023-05-20T02:52:54;17.70;53.80
29431;DHT22;16404;49.902;10.074;2023-05-20T02:55:39;17.70;53.70
29431;DHT22;16404;49.902;10.074;2023-05-20T02:58:24;17.70;52.90
29431;DHT22;16404;49.902;10.074;2023-05-20T03:01:09;17.80;52.70
29431;DHT22;16404;49.902;10.074;2023-05-20T03:03:54;17.80;53.00
29431;DHT22;16404;49.902;10.074;2023-05-20T03:06:39;17.80;53.30
29431;DHT22;16404;49.902;10.074;2023-05-20T03:09:27;17.80;53.90
29431;DHT22;16404;49.902;10.074;2023-05-20T03:12:12;17.80;54.10
29431;DHT22;16404;49.902;10.074;2023-05-20T03:14:57;17.80;54.20
29431;DHT22;16404;49.902;10.074;2023-05-20T03:17:42;17.90;54.10
29431;DHT22;16404;49.902;10.074;2023-05-20T03:20:26;17.80;54.00
29431;DHT22;16404;49.902;10.074;2023-05-20T03:23:12;17.80;53.70
29431;DHT22;16404;49.902;10.074;2023-05-20T03:25:56;17.80;53.90
29431;DHT22;16404;49.902;10.074;2023-05-20T03:28:41;17.80;54.00
29431;DHT22;16404;49.902;10.074;2023-05-20T03:31:26;17.80;54.30
29431;DHT22;16404;49.902;10.074;2023-05-20T03:34:10;17.90;54.40
29431;DHT22;16404;49.902;10.074;2023-05-20T03:36:55;17.90;54.10
29431;DHT22;16404;49.902;10.074;2023-05-20T03:39:40;17.90;54.40
29431;DHT22;16404;49.902;10.074;2023-05-20T03:42:26;17.90;54.50
29431;DHT22;16404;49.902;10.074;2023-05-20T03:45:10;17.90;54.50
29431;DHT22;16404;49.902;10.074;2023-05-20T03:48:02;17.90;54.60
29431;DHT22;16404;49.902;10.074;2023-05-20T03:50:49;17.90;54.60
29431;DHT22;16404;49.902;10.074;2023-05-20T03:53:34;17.90;54.80
29431;DHT22;16404;49.902;10.074;2023-05-20T03:56:19;17.90;54.80
29431;DHT22;16404;49.902;10.074;2023-05-20T03:59:04;17.90;54.80
29431;DHT22;16404;49.902;10.074;2023-05-20T04:01:49;17.90;54.80
29431;DHT22;16404;49.902;10.074;2023-05-20T04:04:34;17.90;54.90
29431;DHT22;16404;49.902;10.074;2023-05-20T04:07:19;18.00;54.80
29431;DHT22;16404;49.902;10.074;2023-05-20T04:10:04;18.00;54.70
29431;DHT22;16404;49.902;10.074;2023-05-20T04:12:49;18.00;54.20
29431;DHT22;16404;49.902;10.074;2023-05-20T04:15:37;18.10;54.40
29431;DHT22;16404;49.902;10.074;2023-05-20T04:18:22;18.10;54.70
29431;DHT22;16404;49.902;10.074;2023-05-20T04:21:06;18.10;54.90
29431;DHT22;16404;49.902;10.074;2023-05-20T04:23:51;18.00;54.90
29431;DHT22;16404;49.902;10.074;2023-05-20T04:26:36;18.10;54.70
29431;DHT22;16404;49.902;10.074;2023-05-20T04:29:20;18.10;54.40
29431;DHT22;16404;49.902;10.074;2023-05-20T04:32:06;18.00;54.70
29431;DHT22;16404;49.902;10.074;2023-05-20T04:34:54;18.10;54.20
29431;DHT22;16404;49.902;10.074;2023-05-20T04:37:40;18.10;54.00
29431;DHT22;16404;49.902;10.074;2023-05-20T04:40:36;18.20;54.50
29431;DHT22;16404;49.902;10.074;2023-05-20T04:43:21;18.20;54.40
29431;DHT22;16404;49.902;10.074;2023-05-20T04:46:06;18.20;54.50
29431;DHT22;16404;49.902;10.074;2023-05-20T04:48:51;18.30;54.60
29431;DHT22;16404;49.902;10.074;2023-05-20T04:51:36;18.20;55.00
29431;DHT22;16404;49.902;10.074;2023-05-20T04:54:21;18.20;54.50
29431;DHT22;16404;49.902;10.074;2023-05-20T04:57:05;18.20;54.70
29431;DHT22;16404;49.902;10.074;2023-05-20T04:59:50;18.20;55.00
29431;DHT22;16404;49.902;10.074;2023-05-20T05:02:36;18.20;54.80
29431;DHT22;16404;49.902;10.074;2023-05-20T05:05:20;18.20;54.70
29431;DHT22;16404;49.902;10.074;2023-05-20T05:08:05;18.30;54.50
29431;DHT22;16404;49.902;10.074;2023-05-20T05:10:53;18.30;54.20
29431;DHT22;16404;49.902;10.074;2023-05-20T05:13:38;18.30;54.20
29431;DHT22;16404;49.902;10.074;2023-05-20T05:16:22;18.40;54.00
29431;DHT22;16404;49.902;10.074;2023-05-20T05:19:07;18.50;53.90
29431;DHT22;16404;49.902;10.074;2023-05-20T05:21:55;18.50;54.10
29431;DHT22;16404;49.902;10.074;2023-05-20T05:24:40;18.60;54.50
29431;DHT22;16404;49.902;10.074;2023-05-20T05:27:24;18.70;54.30
29431;DHT22;16404;49.902;10.074;2023-05-20T05:30:09;18.70;54.30
29431;DHT22;16404;49.902;10.074;2023-05-20T05:32:54;18.70;54.50
29431;DHT22;16404;49.902;10.074;2023-05-20T05:35:40;18.90;54.60
29431;DHT22;16404;49.902;10.074;2023-05-20T05:38:25;19.00;54.50
29431;DHT22;16404;49.902;10.074;2023-05-20T05:41:10;19.20;54.30
29431;DHT22;16404;49.902;10.074;2023-05-20T05:43:55;19.40;53.90
29431;DHT22;16404;49.902;10.074;2023-05-20T05:46:39;19.60;53.60
29431;DHT22;16404;49.902;10.074;2023-05-20T05:49:24;19.80;53.60
29431;DHT22;16404;49.902;10.074;2023-05-20T05:52:08;19.90;53.20
29431;DHT22;16404;49.902;10.074;2023-05-20T05:54:53;20.10;52.80
29431;DHT22;16404;49.902;10.074;2023-05-20T05:57:39;20.20;52.40
29431;DHT22;16404;49.902;10.074;2023-05-20T06:00:24;20.30;52.70
29431;DHT22;16404;49.902;10.074;2023-05-20T06:03:09;20.50;51.90
29431;DHT22;16404;49.902;10.074;2023-05-20T06:05:55;20.60;51.40
29431;DHT22;16404;49.902;10.074;2023-05-20T06:08:39;20.80;50.90
29431;DHT22;16404;49.902;10.074;2023-05-20T06:11:25;20.90;50.60
29431;DHT22;16404;49.902;10.074;2023-05-20T06:14:09;20.80;50.30
29431;DHT22;16404;49.902;10.074;2023-05-20T06:16:54;20.90;50.30
29431;DHT22;16404;49.902;10.074;2023-05-20T06:19:38;21.00;50.20
29431;DHT22;16404;49.902;10.074;2023-05-20T06:22:23;21.10;50.10
29431;DHT22;16404;49.902;10.074;2023-05-20T06:25:08;21.10;50.30
29431;DHT22;16404;49.902;10.074;2023-05-20T06:27:54;21.30;50.30
29431;DHT22;16404;49.902;10.074;2023-05-20T06:30:40;21.40;49.90
29431;DHT22;16404;49.902;10.074;2023-05-20T06:33:26;21.40;49.50
29431;DHT22;16404;49.902;10.074;2023-05-20T06:36:12;21.50;49.50
29431;DHT22;16404;49.902;10.074;2023-05-20T06:38:57;21.40;49.20
29431;DHT22;16404;49.902;10.074;2023-05-20T06:41:42;21.30;49.20
29431;DHT22;16404;49.902;10.074;2023-05-20T06:44:29;21.30;49.30
29431;DHT22;16404;49.902;10.074;2023-05-20T06:47:35;21.20;49.40
29431;DHT22;16404;49.902;10.074;2023-05-20T06:50:20;21.10;50.10
29431;DHT22;16404;49.902;10.074;2023-05-20T06:53:05;20.90;49.70
29431;DHT22;16404;49.902;10.074;2023-05-20T06:55:51;20.80;49.90
29431;DHT22;16404;49.902;10.074;2023-05-20T06:58:36;20.80;50.00
29431;DHT22;16404;49.902;10.074;2023-05-20T07:01:21;20.70;50.30
29431;DHT22;16404;49.902;10.074;2023-05-20T07:04:05;20.80;51.40
29431;DHT22;16404;49.902;10.074;2023-05-20T07:06:51;20.90;50.80
29431;DHT22;16404;49.902;10.074;2023-05-20T07:13:44;21.40;49.90
29431;DHT22;16404;49.902;10.074;2023-05-20T07:16:29;21.70;49.20
29431;DHT22;16404;49.902;10.074;2023-05-20T07:19:16;22.00;49.10
29431;DHT22;16404;49.902;10.074;2023-05-20T07:22:01;22.10;48.40
29431;DHT22;16404;49.902;10.074;2023-05-20T07:24:57;22.20;48.20
29431;DHT22;16404;49.902;10.074;2023-05-20T07:27:42;22.20;48.00
29431;DHT22;16404;49.902;10.074;2023-05-20T07:30:27;22.20;47.90
29431;DHT22;16404;49.902;10.074;2023-05-20T07:33:27;22.20;47.90
29431;DHT22;16404;49.902;10.074;2023-05-20T07:36:13;22.30;47.70
29431;DHT22;16404;49.902;10.074;2023-05-20T07:39:00;22.30;47.70
29431;DHT22;16404;49.902;10.074;2023-05-20T07:41:45;22.20;47.70
29431;DHT22;16404;49.902;10.074;2023-05-20T07:44:30;22.20;47.80
29431;DHT22;16404;49.902;10.074;2023-05-20T07:47:16;22.20;47.70
29431;DHT22;16404;49.902;10.074;2023-05-20T07:50:00;22.20;47.70
29431;DHT22;16404;49.902;10.074;2023-05-20T07:52:46;22.30;47.50
29431;DHT22;16404;49.902;10.074;2023-05-20T07:55:34;22.40;47.50
29431;DHT22;16404;49.902;10.074;2023-05-20T07:58:22;22.60;47.40
29431;DHT22;16404;49.902;10.074;2023-05-20T08:01:08;22.80;47.10
29431;DHT22;16404;49.902;10.074;2023-05-20T08:03:53;23.00;46.80
29431;DHT22;16404;49.902;10.074;2023-05-20T08:06:40;23.10;46.60
29431;DHT22;16404;49.902;10.074;2023-05-20T08:09:30;23.20;46.20
29431;DHT22;16404;49.902;10.074;2023-05-20T08:12:16;23.30;45.80
29431;DHT22;16404;49.902;10.074;2023-05-20T08:15:01;23.40;45.60
29431;DHT22;16404;49.902;10.074;2023-05-20T08:17:45;23.50;45.00
29431;DHT22;16404;49.902;10.074;2023-05-20T08:20:30;23.60;45.10
29431;DHT22;16404;49.902;10.074;2023-05-20T08:23:14;23.70;45.10
29431;DHT22;16404;49.902;10.074;2023-05-20T08:25:59;23.80;44.80
29431;DHT22;16404;49.902;10.074;2023-05-20T08:28:47;23.90;44.80
29431;DHT22;16404;49.902;10.074;2023-05-20T08:31:34;24.10;44.40
29431;DHT22;16404;49.902;10.074;2023-05-20T08:34:19;24.30;43.90
29431;DHT22;16404;49.902;10.074;2023-05-20T08:37:03;24.50;43.90
29431;DHT22;16404;49.902;10.074;2023-05-20T08:39:48;24.60;43.20
29431;DHT22;16404;49.902;10.074;2023-05-20T08:42:33;24.70;43.00
29431;DHT22;16404;49.902;10.074;2023-05-20T08:45:19;24.70;42.90
29431;DHT22;16404;49.902;10.074;2023-05-20T08:48:06;24.80;42.70
29431;DHT22;16404;49.902;10.074;2023-05-20T08:50:52;24.80;42.80
29431;DHT22;16404;49.902;10.074;2023-05-20T08:53:36;24.90;42.90
29431;DHT22;16404;49.902;10.074;2023-05-20T08:56:21;24.90;42.90
29431;DHT22;16404;49.902;10.074;2023-05-20T08:59:07;25.00;42.60
29431;DHT22;16404;49.902;10.074;2023-05-20T09:01:52;25.10;42.50
29431;DHT22;16404;49.902;10.074;2023-05-20T09:04:37;25.30;42.70
29431;DHT22;16404;49.902;10.074;2023-05-20T09:07:26;25.40;42.50
29431;DHT22;16404;49.902;10.074;2023-05-20T09:10:11;25.60;41.70
29431;DHT22;16404;49.902;10.074;2023-05-20T09:12:56;25.70;41.30
29431;DHT22;16404;49.902;10.074;2023-05-20T09:15:40;25.70;40.90
29431;DHT22;16404;49.902;10.074;2023-05-20T09:18:25;25.80;41.20
29431;DHT22;16404;49.902;10.074;2023-05-20T09:21:10;25.80;41.10
29431;DHT22;16404;49.902;10.074;2023-05-20T09:23:55;25.90;41.20
29431;DHT22;16404;49.902;10.074;2023-05-20T09:26:43;25.90;40.70
29431;DHT22;16404;49.902;10.074;2023-05-20T09:29:32;25.90;40.90
29431;DHT22;16404;49.902;10.074;2023-05-20T09:32:18;25.90;41.00
29431;DHT22;16404;49.902;10.074;2023-05-20T09:35:04;26.00;41.00
29431;DHT22;16404;49.902;10.074;2023-05-20T09:37:52;26.10;40.70
29431;DHT22;16404;49.902;10.074;2023-05-20T09:40:38;26.20;40.50
29431;DHT22;16404;49.902;10.074;2023-05-20T09:43:23;26.30;40.40
29431;DHT22;16404;49.902;10.074;2023-05-20T09:46:08;26.50;40.40
29431;DHT22;16404;49.902;10.074;2023-05-20T09:48:54;26.60;40.20
29431;DHT22;16404;49.902;10.074;2023-05-20T09:51:39;26.90;40.20
29431;DHT22;16404;49.902;10.074;2023-05-20T09:54:26;27.10;39.50
29431;DHT22;16404;49.902;10.074;2023-05-20T09:57:12;27.20;39.10
29431;DHT22;16404;49.902;10.074;2023-05-20T09:59:57;27.20;38.80
29431;DHT22;16404;49.902;10.074;2023-05-20T10:02:47;27.20;38.70
29431;DHT22;16404;49.902;10.074;2023-05-20T10:05:46;27.00;38.80
29431;DHT22;16404;49.902;10.074;2023-05-20T10:15:17;26.60;39.40
29431;DHT22;16404;49.902;10.074;2023-05-20T10:18:29;26.50;40.20
29431;DHT22;16404;49.902;10.074;2023-05-20T10:21:17;26.50;40.10
29431;DHT22;16404;49.902;10.074;2023-05-20T10:24:06;26.70;39.50
29431;DHT22;16404;49.902;10.074;2023-05-20T10:26:54;26.80;39.10
29431;DHT22;16404;49.902;10.074;2023-05-20T10:29:43;27.00;38.80
29431;DHT22;16404;49.902;10.074;2023-05-20T10:32:30;27.20;38.90
29431;DHT22;16404;49.902;10.074;2023-05-20T10:35:20;27.40;38.20
29431;DHT22;16404;49.902;10.074;2023-05-20T10:38:08;27.60;38.10
29431;DHT22;16404;49.902;10.074;2023-05-20T10:40:54;27.50;37.30
29431;DHT22;16404;49.902;10.074;2023-05-20T10:43:40;27.50;37.70
29431;DHT22;16404;49.902;10.074;2023-05-20T10:46:26;27.40;38.20
29431;DHT22;16404;49.902;10.074;2023-05-20T10:49:18;27.50;38.00
29431;DHT22;16404;49.902;10.074;2023-05-20T10:52:09;27.40;37.80
29431;DHT22;16404;49.902;10.074;2023-05-20T10:54:56;27.50;37.80
29431;DHT22;16404;49.902;10.074;2023-05-20T10:57:41;27.50;37.70
29431;DHT22;16404;49.902;10.074;2023-05-20T11:00:26;27.40;37.70
29431;DHT22;16404;49.902;10.074;2023-05-20T11:03:12;27.40;37.50
29431;DHT22;16404;49.902;10.074;2023-05-20T11:05:57;27.40;37.50
29431;DHT22;16404;49.902;10.074;2023-05-20T11:08:42;27.40;37.80
29431;DHT22;16404;49.902;10.074;2023-05-20T11:11:27;27.50;37.70
29431;DHT22;16404;49.902;10.074;2023-05-20T11:14:12;27.40;37.50
29431;DHT22;16404;49.902;10.074;2023-05-20T11:16:58;27.50;37.30
29431;DHT22;16404;49.902;10.074;2023-05-20T11:19:43;27.40;37.00
29431;DHT22;16404;49.902;10.074;2023-05-20T11:22:27;27.50;37.40
29431;DHT22;16404;49.902;10.074;2023-05-20T11:25:12;27.50;37.30
29431;DHT22;16404;49.902;10.074;2023-05-20T11:27:57;27.50;37.70
29431;DHT22;16404;49.902;10.074;2023-05-20T11:30:42;27.50;37.30
29431;DHT22;16404;49.902;10.074;2023-05-20T11:33:28;27.40;37.30
29431;DHT22;16404;49.902;10.074;2023-05-20T11:36:13;27.20;37.20
29431;DHT22;16404;49.902;10.074;2023-05-20T11:38:59;27.20;37.40
29431;DHT22;16404;49.902;10.074;2023-05-20T11:41:43;27.00;37.50
29431;DHT22;16404;49.902;10.074;2023-05-20T11:44:28;26.90;37.70
29431;DHT22;16404;49.902;10.074;2023-05-20T11:47:12;26.80;37.80
29431;DHT22;16404;49.902;10.074;2023-05-20T11:49:57;26.80;38.20
29431;DHT22;16404;49.902;10.074;2023-05-20T11:52:42;26.70;38.70
29431;DHT22;16404;49.902;10.074;2023-05-20T11:55:27;26.80;39.20
29431;DHT22;16404;49.902;10.074;2023-05-20T11:58:18;26.80;38.90
29431;DHT22;16404;49.902;10.074;2023-05-20T12:01:02;26.80;38.60
29431;DHT22;16404;49.902;10.074;2023-05-20T12:03:47;26.90;38.80
29431;DHT22;16404;49.902;10.074;2023-05-20T12:06:32;27.00;38.40
29431;DHT22;16404;49.902;10.074;2023-05-20T12:09:16;27.00;38.00
29431;DHT22;16404;49.902;10.074;2023-05-20T12:12:01;27.00;38.10
29431;DHT22;16404;49.902;10.074;2023-05-20T12:14:46;26.90;38.20
29431;DHT22;16404;49.902;10.074;2023-05-20T12:17:48;26.90;38.20
29431;DHT22;16404;49.902;10.074;2023-05-20T12:20:32;26.80;38.30
29431;DHT22;16404;49.902;10.074;2023-05-20T12:23:17;26.80;38.50
29431;DHT22;16404;49.902;10.074;2023-05-20T12:26:01;26.80;38.50
29431;DHT22;16404;49.902;10.074;2023-05-20T12:28:46;26.70;38.70
29431;DHT22;16404;49.902;10.074;2023-05-20T12:31:31;26.70;38.80
29431;DHT22;16404;49.902;10.074;2023-05-20T12:34:15;26.70;39.00
29431;DHT22;16404;49.902;10.074;2023-05-20T12:37:00;26.70;38.90
29431;DHT22;16404;49.902;10.074;2023-05-20T12:39:45;26.60;38.70
29431;DHT22;16404;49.902;10.074;2023-05-20T12:42:30;26.60;39.20
29431;DHT22;16404;49.902;10.074;2023-05-20T12:45:15;26.60;39.20
29431;DHT22;16404;49.902;10.074;2023-05-20T12:48:00;26.70;39.30
29431;DHT22;16404;49.902;10.074;2023-05-20T12:50:45;26.70;39.00
29431;DHT22;16404;49.902;10.074;2023-05-20T12:53:29;26.70;39.30
29431;DHT22;16404;49.902;10.074;2023-05-20T12:56:14;26.70;39.40
29431;DHT22;16404;49.902;10.074;2023-05-20T12:58:59;26.70;39.10
29431;DHT22;16404;49.902;10.074;2023-05-20T13:01:45;26.60;38.70
29431;DHT22;16404;49.902;10.074;2023-05-20T13:04:29;26.70;39.20
29431;DHT22;16404;49.902;10.074;2023-05-20T13:07:14;26.70;39.40
29431;DHT22;16404;49.902;10.074;2023-05-20T13:09:58;26.60;39.30
29431;DHT22;16404;49.902;10.074;2023-05-20T13:12:43;26.70;39.40
29431;DHT22;16404;49.902;10.074;2023-05-20T13:15:30;26.70;39.10
29431;DHT22;16404;49.902;10.074;2023-05-20T13:18:16;26.80;39.40
29431;DHT22;16404;49.902;10.074;2023-05-20T13:21:01;26.80;39.40
29431;DHT22;16404;49.902;10.074;2023-05-20T13:23:45;26.90;39.20
29431;DHT22;16404;49.902;10.074;2023-05-20T13:26:30;27.00;38.90
29431;DHT22;16404;49.902;10.074;2023-05-20T13:29:15;27.10;38.70
29431;DHT22;16404;49.902;10.074;2023-05-20T13:31:59;27.20;38.70
29431;DHT22;16404;49.902;10.074;2023-05-20T13:34:44;27.40;38.70
29431;DHT22;16404;49.902;10.074;2023-05-20T13:37:28;27.40;38.40
29431;DHT22;16404;49.902;10.074;2023-05-20T13:40:13;27.50;38.40
29431;DHT22;16404;49.902;10.074;2023-05-20T13:42:58;27.60;38.20
29431;DHT22;16404;49.902;10.074;2023-05-20T13:45:42;27.60;37.90
29431;DHT22;16404;49.902;10.074;2023-05-20T13:48:27;27.70;37.70
29431;DHT22;16404;49.902;10.074;2023-05-20T13:51:12;27.80;37.70
29431;DHT22;16404;49.902;10.074;2023-05-20T13:53:57;27.90;37.60
29431;DHT22;16404;49.902;10.074;2023-05-20T13:56:42;27.90;37.40
29431;DHT22;16404;49.902;10.074;2023-05-20T13:59:26;27.90;37.60
29431;DHT22;16404;49.902;10.074;2023-05-20T14:02:11;28.00;37.40
29431;DHT22;16404;49.902;10.074;2023-05-20T14:04:56;27.90;37.30
29431;DHT22;16404;49.902;10.074;2023-05-20T14:07:40;27.90;37.40
29431;DHT22;16404;49.902;10.074;2023-05-20T14:10:25;27.80;37.30
29431;DHT22;16404;49.902;10.074;2023-05-20T14:13:09;27.70;37.40
29431;DHT22;16404;49.902;10.074;2023-05-20T14:15:54;27.60;37.60
29431;DHT22;16404;49.902;10.074;2023-05-20T14:18:39;27.60;37.50
29431;DHT22;16404;49.902;10.074;2023-05-20T14:21:24;27.60;38.10
29431;DHT22;16404;49.902;10.074;2023-05-20T14:24:09;27.70;38.30
29431;DHT22;16404;49.902;10.074;2023-05-20T14:26:54;27.80;37.70
29431;DHT22;16404;49.902;10.074;2023-05-20T14:29:39;27.80;37.70
29431;DHT22;16404;49.902;10.074;2023-05-20T14:32:24;27.90;37.80
29431;DHT22;16404;49.902;10.074;2023-05-20T14:35:08;27.90;37.80
29431;DHT22;16404;49.902;10.074;2023-05-20T14:37:54;27.90;37.80
29431;DHT22;16404;49.902;10.074;2023-05-20T14:40:38;27.80;37.20
29431;DHT22;16404;49.902;10.074;2023-05-20T14:43:23;27.80;37.30
29431;DHT22;16404;49.902;10.074;2023-05-20T14:46:07;27.80;37.20
29431;DHT22;16404;49.902;10.074;2023-05-20T14:48:53;27.80;37.30
29431;DHT22;16404;49.902;10.074;2023-05-20T14:51:38;27.80;37.80
29431;DHT22;16404;49.902;10.074;2023-05-20T14:54:22;27.80;37.40
29431;DHT22;16404;49.902;10.074;2023-05-20T14:57:08;27.80;37.30
29431;DHT22;16404;49.902;10.074;2023-05-20T14:59:53;27.80;37.30
29431;DHT22;16404;49.902;10.074;2023-05-20T15:02:37;27.80;37.00
29431;DHT22;16404;49.902;10.074;2023-05-20T15:05:22;27.70;37.00
29431;DHT22;16404;49.902;10.074;2023-05-20T15:08:07;27.70;37.30
29431;DHT22;16404;49.902;10.074;2023-05-20T15:10:51;27.70;37.60
29431;DHT22;16404;49.902;10.074;2023-05-20T15:13:36;27.70;37.60
29431;DHT22;16404;49.902;10.074;2023-05-20T15:16:20;27.70;37.60
29431;DHT22;16404;49.902;10.074;2023-05-20T15:19:07;27.70;37.90
29431;DHT22;16404;49.902;10.074;2023-05-20T15:21:52;27.70;38.20
29431;DHT22;16404;49.902;10.074;2023-05-20T15:24:36;27.90;37.70
29431;DHT22;16404;49.902;10.074;2023-05-20T15:27:21;27.90;37.20
29431;DHT22;16404;49.902;10.074;2023-05-20T15:30:06;28.00;37.30
29431;DHT22;16404;49.902;10.074;2023-05-20T15:32:50;28.00;37.10
29431;DHT22;16404;49.902;10.074;2023-05-20T15:35:35;28.10;37.20
29431;DHT22;16404;49.902;10.074;2023-05-20T15:38:19;28.00;37.00
29431;DHT22;16404;49.902;10.074;2023-05-20T15:41:04;28.00;36.90
29431;DHT22;16404;49.902;10.074;2023-05-20T15:43:49;27.90;36.90
29431;DHT22;16404;49.902;10.074;2023-05-20T15:46:34;27.80;36.90
29431;DHT22;16404;49.902;10.074;2023-05-20T15:49:19;27.80;38.20
29431;DHT22;16404;49.902;10.074;2023-05-20T15:52:03;27.70;39.00
29431;DHT22;16404;49.902;10.074;2023-05-20T15:54:48;27.80;39.30
29431;DHT22;16404;49.902;10.074;2023-05-20T15:57:33;27.70;39.60
29431;DHT22;16404;49.902;10.074;2023-05-20T16:00:18;27.60;39.80
29431;DHT22;16404;49.902;10.074;2023-05-20T16:03:03;27.60;40.00
29431;DHT22;16404;49.902;10.074;2023-05-20T16:05:47;27.60;40.20
29431;DHT22;16404;49.902;10.074;2023-05-20T16:08:32;27.50;40.40
29431;DHT22;16404;49.902;10.074;2023-05-20T16:11:19;27.40;40.50
29431;DHT22;16404;49.902;10.074;2023-05-20T16:14:04;27.40;40.80
29431;DHT22;16404;49.902;10.074;2023-05-20T16:16:48;27.50;40.70
29431;DHT22;16404;49.902;10.074;2023-05-20T16:19:33;27.40;40.70
29431;DHT22;16404;49.902;10.074;2023-05-20T16:22:18;27.30;41.10
29431;DHT22;16404;49.902;10.074;2023-05-20T16:25:02;27.20;41.20
29431;DHT22;16404;49.902;10.074;2023-05-20T16:27:47;27.10;41.50
29431;DHT22;16404;49.902;10.074;2023-05-20T16:30:33;27.10;41.70
29431;DHT22;16404;49.902;10.074;2023-05-20T16:33:17;27.10;41.80
29431;DHT22;16404;49.902;10.074;2023-05-20T16:36:02;27.10;42.00
29431;DHT22;16404;49.902;10.074;2023-05-20T16:38:47;27.10;42.20
29431;DHT22;16404;49.902;10.074;2023-05-20T16:41:31;27.20;42.30
29431;DHT22;16404;49.902;10.074;2023-05-20T16:44:16;27.30;42.20
29431;DHT22;16404;49.902;10.074;2023-05-20T16:47:01;27.20;42.10
29431;DHT22;16404;49.902;10.074;2023-05-20T16:49:45;27.20;42.00
29431;DHT22;16404;49.902;10.074;2023-05-20T16:52:32;27.20;42.10
29431;DHT22;16404;49.902;10.074;2023-05-20T16:55:17;27.10;42.00
29431;DHT22;16404;49.902;10.074;2023-05-20T16:58:02;27.10;42.20
29431;DHT22;16404;49.902;10.074;2023-05-20T17:00:46;27.10;42.40
29431;DHT22;16404;49.902;10.074;2023-05-20T17:03:31;27.00;42.50
29431;DHT22;16404;49.902;10.074;2023-05-20T17:06:16;27.00;42.60
29431;DHT22;16404;49.902;10.074;2023-05-20T17:09:01;26.90;42.60
29431;DHT22;16404;49.902;10.074;2023-05-20T17:11:47;26.90;42.70
29431;DHT22;16404;49.902;10.074;2023-05-20T17:14:32;26.80;42.70
29431;DHT22;16404;49.902;10.074;2023-05-20T17:17:16;26.70;42.80
29431;DHT22;16404;49.902;10.074;2023-05-20T17:20:01;26.70;42.90